Time;durP1;ratioP1;P1;durP2;ratioP2;P2;SDS_P1;SDS_P2;PMS_P1;PMS_P2;Temp;Humidity;BMP_temperature;BMP_pressure;BME280_temperature;BME280_humidity;BME280_pressure;Samples;Min_cycle;Max_cycle;Signal;HPM_P1;HPM_P2
2021/01/11 00:04:10;;;;;;;13.52;11.25;;;;;;;;;;4939880;28;20809;31
2021/01/11 00:06:39;;;;;;;14.18;11.63;;;;;;;;;;4177295;34;20502;-58
2021/01/11 00:09:06;;;;;;;12.70;10.52;;;;;;;;;;4166723;34;20129;-57
2021/01/11 00:11:34;;;;;;;12.40;11.07;;;;;;;;;;4192817;34;20126;-58
2021/01/11 00:14:01;;;;;;;15.13;11.93;;;;;;;;;;4185189;34;20522;-58
2021/01/11 00:16:28;;;;;;;15.02;11.60;;;;;;;;;;4178920;34;20099;-57
2021/01/11 00:18:54;;;;;;;15.55;12.60;;;;;;;;;;4178946;34;20138;-58
2021/01/11 00:21:21;;;;;;;15.25;12.48;;;;;;;;;;4166762;34;20206;-59
2021/01/11 00:23:48;;;;;;;15.55;12.40;;;;;;;;;;4179997;34;20298;-59
2021/01/11 00:26:14;;;;;;;14.70;12.30;;;;;;;;;;4179963;34;20118;-59
2021/01/11 00:28:40;;;;;;;16.00;12.43;;;;;;;;;;4192488;34;20106;-58
2021/01/11 00:31:06;;;;;;;15.80;12.43;;;;;;;;;;4192231;34;20197;-59
2021/01/11 00:33:32;;;;;;;15.32;12.05;;;;;;;;;;4192447;34;20174;-58
2021/01/11 00:35:59;;;;;;;15.85;12.10;;;;;;;;;;4192340;34;20118;-59
2021/01/11 00:38:25;;;;;;;14.38;11.50;;;;;;;;;;4192006;34;20210;-59
2021/01/11 00:40:51;;;;;;;15.15;12.13;;;;;;;;;;4165791;34;20193;-58
2021/01/11 00:43:17;;;;;;;17.98;12.27;;;;;;;;;;4165812;34;20110;-58
2021/01/11 00:45:42;;;;;;;14.80;12.20;;;;;;;;;;4178782;34;20106;-58
2021/01/11 00:48:08;;;;;;;14.30;12.05;;;;;;;;;;4178680;34;20101;-58
2021/01/11 00:50:34;;;;;;;15.77;12.60;;;;;;;;;;4178449;34;20130;-58
2021/01/11 00:53:01;;;;;;;16.35;12.68;;;;;;;;;;4165791;34;20126;-58
2021/01/11 00:55:30;;;;;;;14.82;11.70;;;;;;;;;;4178332;34;20103;-58
2021/01/11 00:57:57;;;;;;;15.55;12.68;;;;;;;;;;4178638;34;20129;-59
2021/01/11 01:00:24;;;;;;;14.00;11.50;;;;;;;;;;4178673;34;20125;-58
2021/01/11 01:02:50;;;;;;;16.02;11.40;;;;;;;;;;4178509;34;20607;-59
2021/01/11 01:05:16;;;;;;;12.80;11.32;;;;;;;;;;4178038;34;20129;-59
2021/01/11 01:07:43;;;;;;;16.65;12.25;;;;;;;;;;4178486;34;20202;-59
2021/01/11 01:10:11;;;;;;;16.15;11.68;;;;;;;;;;4178240;34;20622;-57
2021/01/11 01:12:39;;;;;;;14.00;11.98;;;;;;;;;;4166215;34;20538;-57
2021/01/11 01:15:07;;;;;;;15.55;13.13;;;;;;;;;;4154534;34;20122;-58
2021/01/11 01:17:36;;;;;;;14.80;12.05;;;;;;;;;;4178504;34;20129;-58
2021/01/11 01:20:03;;;;;;;16.42;12.05;;;;;;;;;;4165811;34;20206;-59
2021/01/11 01:22:29;;;;;;;16.17;12.50;;;;;;;;;;4178296;34;20523;-58
2021/01/11 01:24:55;;;;;;;16.70;12.37;;;;;;;;;;4178060;34;20111;-59
2021/01/11 01:27:21;;;;;;;16.73;12.02;;;;;;;;;;4178571;34;20125;-59
2021/01/11 01:29:47;;;;;;;13.77;11.18;;;;;;;;;;4178170;34;20127;-59
2021/01/11 01:32:13;;;;;;;16.98;12.13;;;;;;;;;;4178441;34;20122;-59
2021/01/11 01:34:38;;;;;;;15.90;12.77;;;;;;;;;;4165330;34;20099;-58
2021/01/11 01:37:05;;;;;;;16.85;12.43;;;;;;;;;;4178116;34;20110;-59
2021/01/11 01:39:33;;;;;;;17.83;13.00;;;;;;;;;;4170596;34;20158;-58
2021/01/11 01:42:01;;;;;;;14.23;11.93;;;;;;;;;;4179601;34;20098;-59
2021/01/11 01:44:27;;;;;;;16.00;12.13;;;;;;;;;;4191714;34;20201;-58
2021/01/11 01:46:53;;;;;;;15.63;12.25;;;;;;;;;;4192048;34;20110;-59
2021/01/11 01:49:19;;;;;;;15.50;11.90;;;;;;;;;;4179173;34;20146;-58
2021/01/11 01:51:45;;;;;;;18.25;13.30;;;;;;;;;;4156394;34;20082;-59
2021/01/11 01:54:13;;;;;;;17.42;12.05;;;;;;;;;;4167924;34;20160;-59
2021/01/11 01:56:40;;;;;;;19.23;13.23;;;;;;;;;;4156831;34;20137;-59
2021/01/11 01:59:10;;;;;;;17.77;13.32;;;;;;;;;;4167724;34;20102;-60
2021/01/11 02:01:39;;;;;;;15.15;12.30;;;;;;;;;;4167782;34;20114;-59
2021/01/11 02:04:04;;;;;;;17.17;12.70;;;;;;;;;;4191511;34;20450;-59
2021/01/11 02:06:33;;;;;;;17.52;13.25;;;;;;;;;;4166049;34;20106;-58
2021/01/11 02:09:11;;;;;;;17.25;13.25;;;;;;;;;;4140843;34;20196;-59
2021/01/11 02:11:41;;;;;;;17.58;13.25;;;;;;;;;;4163196;34;20111;-59
2021/01/11 02:14:17;;;;;;;16.17;13.32;;;;;;;;;;4163400;34;20158;-58
2021/01/11 02:16:48;;;;;;;16.50;13.80;;;;;;;;;;4162917;34;20207;-59
2021/01/11 02:19:17;;;;;;;14.52;11.57;;;;;;;;;;4164023;34;20197;-57
2021/01/11 02:22:03;;;;;;;15.52;12.68;;;;;;;;;;4164237;34;20135;-59
2021/01/11 02:24:57;;;;;;;16.77;12.52;;;;;;;;;;4164234;34;20115;-58
2021/01/11 02:27:48;;;;;;;16.73;13.23;;;;;;;;;;4164337;34;20122;-53
2021/01/11 02:30:16;;;;;;;16.27;13.10;;;;;;;;;;4164270;34;20125;-55
2021/01/11 02:32:48;;;;;;;17.25;13.05;;;;;;;;;;4164402;34;20202;-54
2021/01/11 02:35:14;;;;;;;16.77;12.90;;;;;;;;;;4162524;34;20467;-59
2021/01/11 02:37:40;;;;;;;15.98;12.75;;;;;;;;;;4162924;34;20099;-56
2021/01/11 02:40:07;;;;;;;18.40;13.90;;;;;;;;;;4151423;34;20212;-50
2021/01/11 02:42:35;;;;;;;22.35;16.50;;;;;;;;;;4163008;34;20166;-57
2021/01/11 02:45:01;;;;;;;32.65;26.52;;;;;;;;;;4162536;34;20133;-59
2021/01/11 02:47:32;;;;;;;32.53;24.30;;;;;;;;;;4164072;34;20273;-57
2021/01/11 02:49:58;;;;;;;21.90;16.75;;;;;;;;;;4162740;34;20130;-58
2021/01/11 02:52:39;;;;;;;20.60;15.02;;;;;;;;;;4162725;34;20106;-57
2021/01/11 02:55:07;;;;;;;19.48;13.90;;;;;;;;;;4162669;34;20110;-57
2021/01/11 02:57:44;;;;;;;17.67;12.95;;;;;;;;;;4162790;34;20223;-54
2021/01/11 03:00:10;;;;;;;17.08;12.48;;;;;;;;;;4151499;34;20114;-60
2021/01/11 03:02:36;;;;;;;17.17;13.60;;;;;;;;;;4162453;34;20099;-56
2021/01/11 03:05:03;;;;;;;14.80;12.65;;;;;;;;;;4162053;34;20191;-59
2021/01/11 03:07:29;;;;;;;16.37;12.70;;;;;;;;;;4162533;34;20199;-59
2021/01/11 03:09:55;;;;;;;17.12;12.52;;;;;;;;;;4162260;34;20529;-59
2021/01/11 03:12:21;;;;;;;16.80;12.93;;;;;;;;;;4163753;34;20109;-58
2021/01/11 03:14:46;;;;;;;18.52;14.65;;;;;;;;;;4163688;34;20531;-58
2021/01/11 03:17:12;;;;;;;17.12;14.00;;;;;;;;;;4163625;34;20131;-57
2021/01/11 03:19:38;;;;;;;15.80;13.85;;;;;;;;;;4163490;34;20611;-57
2021/01/11 03:22:04;;;;;;;19.37;13.77;;;;;;;;;;4163561;34;20502;-58
2021/01/11 03:24:30;;;;;;;16.90;14.15;;;;;;;;;;4162276;34;20126;-60
2021/01/11 03:26:59;;;;;;;15.85;13.60;;;;;;;;;;4163593;34;20467;-58
2021/01/11 03:29:25;;;;;;;18.42;13.77;;;;;;;;;;4163748;34;20146;-58
2021/01/11 03:31:51;;;;;;;17.83;13.50;;;;;;;;;;4163545;34;20217;-59
2021/01/11 03:34:17;;;;;;;17.05;13.65;;;;;;;;;;4163476;34;20206;-57
2021/01/11 03:36:43;;;;;;;15.77;12.75;;;;;;;;;;4163710;34;20547;-59
2021/01/11 03:39:10;;;;;;;18.45;13.05;;;;;;;;;;4163345;34;20471;-58
2021/01/11 03:41:37;;;;;;;15.85;13.82;;;;;;;;;;4163542;34;20109;-58
2021/01/11 03:44:03;;;;;;;17.90;14.55;;;;;;;;;;4163435;34;20190;-58
2021/01/11 03:46:30;;;;;;;16.00;13.40;;;;;;;;;;4163567;34;20111;-58
2021/01/11 03:48:56;;;;;;;20.88;13.85;;;;;;;;;;4163457;34;20115;-57
2021/01/11 03:51:23;;;;;;;18.12;13.45;;;;;;;;;;4163549;34;20225;-57
2021/01/11 03:53:50;;;;;;;16.30;13.27;;;;;;;;;;4163548;34;20099;-57
2021/01/11 03:56:16;;;;;;;15.95;13.10;;;;;;;;;;4163341;34;20149;-58
2021/01/11 03:58:42;;;;;;;18.85;13.52;;;;;;;;;;4161938;34;20568;-58
2021/01/11 04:01:08;;;;;;;17.15;13.15;;;;;;;;;;4163381;34;20536;-57
2021/01/11 04:03:34;;;;;;;17.25;12.32;;;;;;;;;;4163196;34;20118;-58
2021/01/11 04:06:00;;;;;;;16.58;12.45;;;;;;;;;;4162824;34;20115;-59
2021/01/11 04:08:26;;;;;;;18.85;12.98;;;;;;;;;;4163230;34;20122;-59
2021/01/11 04:10:52;;;;;;;19.20;13.13;;;;;;;;;;4163084;34;20189;-59
2021/01/11 04:13:21;;;;;;;15.70;13.07;;;;;;;;;;4163134;34;20492;-59
2021/01/11 04:15:47;;;;;;;19.02;13.62;;;;;;;;;;4150588;34;20499;-58
2021/01/11 04:18:13;;;;;;;17.27;13.10;;;;;;;;;;4163289;34;20207;-59
2021/01/11 04:20:39;;;;;;;15.07;12.52;;;;;;;;;;4162983;34;20562;-58
2021/01/11 04:23:05;;;;;;;15.93;13.20;;;;;;;;;;4161773;34;20122;-59
2021/01/11 04:25:32;;;;;;;24.48;15.55;;;;;;;;;;4162933;34;20133;-58
2021/01/11 04:27:59;;;;;;;24.23;16.83;;;;;;;;;;4161500;34;20095;-58
2021/01/11 04:30:25;;;;;;;17.00;12.90;;;;;;;;;;4162912;34;20160;-58
2021/01/11 04:32:51;;;;;;;18.85;14.40;;;;;;;;;;4150588;34;20107;-58
2021/01/11 04:35:19;;;;;;;16.25;13.75;;;;;;;;;;4162854;34;20122;-59
2021/01/11 04:37:45;;;;;;;18.52;14.00;;;;;;;;;;4163470;34;20268;-58
2021/01/11 04:40:11;;;;;;;19.98;14.80;;;;;;;;;;4163487;34;20118;-58
2021/01/11 04:43:02;;;;;;;20.17;15.55;;;;;;;;;;4165120;34;20186;-58
2021/01/11 04:45:27;;;;;;;24.92;16.33;;;;;;;;;;4165134;34;20111;-58
2021/01/11 04:47:58;;;;;;;25.35;17.17;;;;;;;;;;4165045;34;20120;-58
2021/01/11 04:50:24;;;;;;;21.00;15.80;;;;;;;;;;4163491;34;20094;-58
2021/01/11 04:52:50;;;;;;;21.15;16.10;;;;;;;;;;4164838;34;20186;-58
2021/01/11 04:55:16;;;;;;;22.45;16.37;;;;;;;;;;4165040;34;20099;-58
2021/01/11 04:57:52;;;;;;;24.90;16.77;;;;;;;;;;4152353;34;20589;-58
2021/01/11 05:00:23;;;;;;;26.20;17.48;;;;;;;;;;4165056;34;20102;-58
2021/01/11 05:03:10;;;;;;;23.23;17.42;;;;;;;;;;4164702;34;20484;-58
2021/01/11 05:05:45;;;;;;;19.95;15.45;;;;;;;;;;4172568;34;20130;-58
2021/01/11 05:08:11;;;;;;;18.85;14.50;;;;;;;;;;4178413;34;20130;-58
2021/01/11 05:10:39;;;;;;;16.80;14.07;;;;;;;;;;4165575;34;20090;-58
2021/01/11 05:13:09;;;;;;;19.90;14.65;;;;;;;;;;4165601;34;20118;-58
2021/01/11 05:15:35;;;;;;;22.98;15.70;;;;;;;;;;4165518;34;20118;-58
2021/01/11 05:18:02;;;;;;;23.48;16.65;;;;;;;;;;4178371;34;20102;-58
2021/01/11 05:20:30;;;;;;;23.12;16.60;;;;;;;;;;4165654;34;20115;-58
2021/01/11 05:22:58;;;;;;;23.02;16.70;;;;;;;;;;4178384;34;20515;-58
2021/01/11 05:25:25;;;;;;;21.15;16.15;;;;;;;;;;4178163;34;20103;-58
2021/01/11 05:28:10;;;;;;;21.40;15.60;;;;;;;;;;4178179;34;20226;-58
2021/01/11 05:30:40;;;;;;;23.87;17.15;;;;;;;;;;4178024;34;20099;-58
2021/01/11 05:33:07;;;;;;;26.85;20.25;;;;;;;;;;4178355;34;20129;-58
2021/01/11 05:35:33;;;;;;;28.73;21.23;;;;;;;;;;4178053;34;20608;-58
2021/01/11 05:37:59;;;;;;;31.60;23.67;;;;;;;;;;4177932;34;20647;-58
2021/01/11 05:40:29;;;;;;;31.70;21.77;;;;;;;;;;4178203;34;20121;-59
2021/01/11 05:42:57;;;;;;;27.30;20.42;;;;;;;;;;4178272;34;20137;-57
2021/01/11 05:45:25;;;;;;;25.23;20.05;;;;;;;;;;4178020;34;20106;-58
2021/01/11 05:48:03;;;;;;;22.98;18.55;;;;;;;;;;4164644;34;20129;-58
2021/01/11 05:50:45;;;;;;;24.50;19.37;;;;;;;;;;4165390;34;20094;-59
2021/01/11 05:53:14;;;;;;;24.27;17.90;;;;;;;;;;4178037;34;20169;-59
2021/01/11 05:55:40;;;;;;;23.42;18.00;;;;;;;;;;4177998;34;20090;-59
2021/01/11 05:58:05;;;;;;;24.23;17.70;;;;;;;;;;4165125;34;20106;-58
2021/01/11 06:00:33;;;;;;;23.20;16.23;;;;;;;;;;4177903;34;20091;-59
2021/01/11 06:02:59;;;;;;;18.87;15.05;;;;;;;;;;4165298;34;20179;-60
2021/01/11 06:05:26;;;;;;;20.12;14.90;;;;;;;;;;4177575;34;20119;-59
2021/01/11 06:07:52;;;;;;;17.92;14.60;;;;;;;;;;4177840;34;20213;-57
2021/01/11 06:10:18;;;;;;;18.20;14.70;;;;;;;;;;4177807;34;20130;-59
2021/01/11 06:12:45;;;;;;;18.02;13.20;;;;;;;;;;4178070;34;20110;-59
2021/01/11 06:15:16;;;;;;;16.90;13.70;;;;;;;;;;4177767;34;20102;-59
2021/01/11 06:17:46;;;;;;;17.75;13.85;;;;;;;;;;4178012;34;20140;-59
2021/01/11 06:20:23;;;;;;;17.85;13.15;;;;;;;;;;4177611;34;20138;-59
2021/01/11 06:22:49;;;;;;;18.20;12.98;;;;;;;;;;4177940;34;20132;-57
2021/01/11 06:25:18;;;;;;;17.23;13.20;;;;;;;;;;4177885;34;20117;-59
2021/01/11 06:28:08;;;;;;;18.87;13.57;;;;;;;;;;4177609;34;20114;-59
2021/01/11 06:30:37;;;;;;;17.37;13.45;;;;;;;;;;4177904;34;20116;-59
2021/01/11 06:33:07;;;;;;;17.17;12.85;;;;;;;;;;4177557;34;20250;-59
2021/01/11 06:35:36;;;;;;;17.10;12.00;;;;;;;;;;4177501;34;20115;-59
2021/01/11 06:38:18;;;;;;;16.27;12.88;;;;;;;;;;4177428;34;20106;-59
2021/01/11 06:40:45;;;;;;;17.25;12.40;;;;;;;;;;4165098;34;20122;-58
2021/01/11 06:43:11;;;;;;;18.35;12.93;;;;;;;;;;4177826;34;20149;-59
2021/01/11 06:45:39;;;;;;;18.48;12.93;;;;;;;;;;4153577;34;20530;-59
2021/01/11 06:48:10;;;;;;;18.20;13.82;;;;;;;;;;4164892;34;20463;-58
2021/01/11 06:50:36;;;;;;;20.37;15.68;;;;;;;;;;4164709;34;20157;-57
2021/01/11 06:53:02;;;;;;;17.10;12.40;;;;;;;;;;4164734;34;20526;-59
2021/01/11 06:55:28;;;;;;;17.85;12.68;;;;;;;;;;4153383;34;20288;-59
2021/01/11 06:57:55;;;;;;;14.20;11.60;;;;;;;;;;4177478;34;20112;-59
2021/01/11 07:00:27;;;;;;;13.88;11.32;;;;;;;;;;4176952;34;20106;-59
2021/01/11 07:02:53;;;;;;;16.58;11.55;;;;;;;;;;4165451;34;20227;-60
2021/01/11 07:05:37;;;;;;;14.10;11.35;;;;;;;;;;4153156;34;20150;-59
2021/01/11 07:08:07;;;;;;;16.67;11.95;;;;;;;;;;4177297;34;20110;-59
2021/01/11 07:10:34;;;;;;;15.38;11.18;;;;;;;;;;4177588;34;20126;-59
2021/01/11 07:13:19;;;;;;;15.13;11.65;;;;;;;;;;4177307;34;20522;-59
2021/01/11 07:15:51;;;;;;;15.20;11.50;;;;;;;;;;4177173;34;20122;-59
2021/01/11 07:18:39;;;;;;;13.02;10.90;;;;;;;;;;4177240;34;20463;-59
2021/01/11 07:21:15;;;;;;;17.15;11.68;;;;;;;;;;4177431;34;20475;-57
2021/01/11 07:23:41;;;;;;;16.15;12.05;;;;;;;;;;4177270;34;20114;-59
2021/01/11 07:26:11;;;;;;;15.30;11.30;;;;;;;;;;4177033;34;20126;-58
2021/01/11 07:28:37;;;;;;;14.65;11.93;;;;;;;;;;4177195;34;20115;-57
2021/01/11 07:31:03;;;;;;;16.00;11.52;;;;;;;;;;4176989;34;20150;-58
2021/01/11 07:33:29;;;;;;;16.02;12.05;;;;;;;;;;4164317;34;20549;-58
2021/01/11 07:35:55;;;;;;;16.83;11.57;;;;;;;;;;4164288;34;20119;-58
2021/01/11 07:38:20;;;;;;;14.35;11.35;;;;;;;;;;4164295;34;20102;-58
2021/01/11 07:40:57;;;;;;;15.02;11.73;;;;;;;;;;4177280;34;20110;-58
2021/01/11 07:43:24;;;;;;;15.68;11.18;;;;;;;;;;4153314;34;20192;-57
2021/01/11 07:46:00;;;;;;;15.98;12.68;;;;;;;;;;4164531;34;20117;-57
2021/01/11 07:48:26;;;;;;;15.50;12.43;;;;;;;;;;4177072;34;20474;-59
2021/01/11 07:50:52;;;;;;;16.70;12.57;;;;;;;;;;4176887;34;20133;-58
2021/01/11 07:53:18;;;;;;;19.15;14.02;;;;;;;;;;4177184;34;20102;-59
2021/01/11 07:55:44;;;;;;;14.45;12.23;;;;;;;;;;4176948;34;20102;-59
2021/01/11 07:58:11;;;;;;;16.77;13.68;;;;;;;;;;4152974;34;20215;-58
2021/01/11 08:00:36;;;;;;;18.33;13.27;;;;;;;;;;4176793;34;20114;-55
2021/01/11 08:03:03;;;;;;;18.58;13.57;;;;;;;;;;4177065;34;20465;-58
2021/01/11 08:05:29;;;;;;;16.98;13.62;;;;;;;;;;4163994;34;20195;-58
2021/01/11 08:08:02;;;;;;;16.67;13.35;;;;;;;;;;4176674;34;20127;-59
2021/01/11 08:10:28;;;;;;;16.12;13.40;;;;;;;;;;4176729;34;20634;-56
2021/01/11 08:13:12;;;;;;;19.12;14.60;;;;;;;;;;4178616;34;20126;-57
2021/01/11 08:15:38;;;;;;;16.25;13.32;;;;;;;;;;4178803;34;20146;-57
2021/01/11 08:18:04;;;;;;;15.57;12.82;;;;;;;;;;4178681;34;20126;-59
2021/01/11 08:20:30;;;;;;;15.40;13.02;;;;;;;;;;4166098;34;20116;-59
2021/01/11 08:22:56;;;;;;;15.80;13.18;;;;;;;;;;4179139;34;20106;-58
2021/01/11 08:25:22;;;;;;;18.02;13.85;;;;;;;;;;4178616;34;20118;-59
2021/01/11 08:27:49;;;;;;;15.98;12.80;;;;;;;;;;4178887;34;20190;-60
2021/01/11 08:30:16;;;;;;;14.45;12.55;;;;;;;;;;4165994;34;20555;-58
2021/01/11 08:32:42;;;;;;;19.73;13.95;;;;;;;;;;4165941;34;20110;-58
2021/01/11 08:35:09;;;;;;;17.77;13.27;;;;;;;;;;4178550;34;20094;-58
2021/01/11 08:37:35;;;;;;;15.93;13.25;;;;;;;;;;4178629;34;20222;-58
2021/01/11 08:40:06;;;;;;;17.87;13.98;;;;;;;;;;4166046;34;20403;-59
2021/01/11 08:42:32;;;;;;;16.98;12.80;;;;;;;;;;4178915;34;20129;-53
2021/01/11 08:45:26;;;;;;;15.02;12.63;;;;;;;;;;4178498;34;20554;-60
2021/01/11 08:48:04;;;;;;;15.35;12.60;;;;;;;;;;4178728;34;20134;-60
2021/01/11 08:50:30;;;;;;;15.60;12.68;;;;;;;;;;4178560;34;20195;-59
2021/01/11 08:52:56;;;;;;;14.85;12.73;;;;;;;;;;4178431;34;20609;-59
2021/01/11 08:55:22;;;;;;;15.13;12.32;;;;;;;;;;4165991;34;20114;-59
2021/01/11 08:57:56;;;;;;;15.80;13.00;;;;;;;;;;4178574;34;20137;-59
2021/01/11 09:00:22;;;;;;;14.70;12.32;;;;;;;;;;4178195;34;20106;-59
2021/01/11 09:02:48;;;;;;;16.83;13.88;;;;;;;;;;4178404;34;20165;-58
2021/01/11 09:05:24;;;;;;;16.02;14.10;;;;;;;;;;4178305;34;20128;-60
2021/01/11 09:07:51;;;;;;;18.92;14.82;;;;;;;;;;4178382;34;20126;-60
2021/01/11 09:10:24;;;;;;;17.95;14.27;;;;;;;;;;4178225;34;20118;-57
2021/01/11 09:12:50;;;;;;;15.88;12.40;;;;;;;;;;4182254;34;20122;-60
2021/01/11 09:15:27;;;;;;;14.40;12.82;;;;;;;;;;4191705;34;20110;-59
2021/01/11 09:18:03;;;;;;;16.42;12.82;;;;;;;;;;4168332;34;20099;-59
2021/01/11 09:20:29;;;;;;;17.85;14.07;;;;;;;;;;4164970;34;20098;-60
2021/01/11 09:22:56;;;;;;;15.27;13.02;;;;;;;;;;4188385;34;20105;-60
2021/01/11 09:25:22;;;;;;;14.82;12.82;;;;;;;;;;4179173;34;20574;-60
2021/01/11 09:27:48;;;;;;;16.50;13.52;;;;;;;;;;4178922;34;20525;-60
2021/01/11 09:30:15;;;;;;;14.65;12.65;;;;;;;;;;4192029;34;20122;-59
2021/01/11 09:32:43;;;;;;;14.77;12.85;;;;;;;;;;4178791;34;20237;-59
2021/01/11 09:35:09;;;;;;;15.57;13.45;;;;;;;;;;4191598;34;20189;-59
2021/01/11 09:37:35;;;;;;;15.63;13.30;;;;;;;;;;4178950;34;20534;-59
2021/01/11 09:40:01;;;;;;;15.45;12.82;;;;;;;;;;4191612;34;20110;-59
2021/01/11 09:42:27;;;;;;;13.30;11.23;;;;;;;;;;4191555;34;20106;-59
2021/01/11 09:44:53;;;;;;;14.52;12.35;;;;;;;;;;4191609;34;20184;-60
2021/01/11 09:47:19;;;;;;;15.80;12.80;;;;;;;;;;4191378;34;20124;-59
2021/01/11 09:49:44;;;;;;;16.67;12.65;;;;;;;;;;4191788;34;20557;-61
2021/01/11 09:52:11;;;;;;;15.63;12.43;;;;;;;;;;4191250;34;20140;-57
2021/01/11 09:54:36;;;;;;;15.48;13.10;;;;;;;;;;4191652;34;20515;-57
2021/01/11 09:57:04;;;;;;;15.13;12.95;;;;;;;;;;4191126;34;20137;-58
2021/01/11 09:59:30;;;;;;;14.73;12.32;;;;;;;;;;4178503;34;20194;-58
2021/01/11 10:01:56;;;;;;;17.08;12.70;;;;;;;;;;4185920;34;20545;-60
2021/01/11 10:04:22;;;;;;;17.55;11.93;;;;;;;;;;4177675;34;20145;-60
2021/01/11 10:06:56;;;;;;;15.57;12.40;;;;;;;;;;4189706;34;20458;-59
2021/01/11 10:09:31;;;;;;;17.20;12.13;;;;;;;;;;4191513;34;20126;-58
2021/01/11 10:12:01;;;;;;;13.85;12.25;;;;;;;;;;4191131;34;20138;-58
2021/01/11 10:14:27;;;;;;;14.18;11.98;;;;;;;;;;4178531;34;20743;-58
2021/01/11 10:16:54;;;;;;;13.55;12.13;;;;;;;;;;4173500;34;20125;-58
2021/01/11 10:19:20;;;;;;;14.68;12.37;;;;;;;;;;4177590;34;20114;-59
2021/01/11 10:21:47;;;;;;;13.95;11.98;;;;;;;;;;4181715;34;20160;-59
2021/01/11 10:24:16;;;;;;;13.80;11.88;;;;;;;;;;4178262;34;20109;-60
2021/01/11 10:26:43;;;;;;;13.50;10.80;;;;;;;;;;4191325;34;20465;-59
2021/01/11 10:29:09;;;;;;;14.63;11.35;;;;;;;;;;4191424;34;20130;-60
2021/01/11 10:31:35;;;;;;;14.02;11.95;;;;;;;;;;4190725;34;20198;-61
2021/01/11 10:34:01;;;;;;;13.38;11.05;;;;;;;;;;4190629;34;20156;-59
2021/01/11 10:36:28;;;;;;;13.27;11.35;;;;;;;;;;4191121;34;20102;-59
2021/01/11 10:38:54;;;;;;;13.02;11.20;;;;;;;;;;4191137;34;20128;-59
2021/01/11 10:41:20;;;;;;;13.57;11.23;;;;;;;;;;4190685;34;20138;-57
2021/01/11 10:43:46;;;;;;;14.45;11.35;;;;;;;;;;4191495;34;20137;-61
2021/01/11 10:46:13;;;;;;;13.60;10.95;;;;;;;;;;4190780;34;20146;-60
2021/01/11 10:48:39;;;;;;;14.32;11.65;;;;;;;;;;4191404;34;20115;-59
2021/01/11 10:51:08;;;;;;;15.38;11.23;;;;;;;;;;4177835;34;20515;-56
2021/01/11 10:53:34;;;;;;;15.00;12.65;;;;;;;;;;4178295;34;20091;-61
2021/01/11 10:56:00;;;;;;;14.43;11.93;;;;;;;;;;4176990;34;20110;-57
2021/01/11 10:58:26;;;;;;;13.55;11.57;;;;;;;;;;4177190;34;20462;-60
2021/01/11 11:00:51;;;;;;;14.43;12.27;;;;;;;;;;4177141;34;20118;-60
2021/01/11 11:03:17;;;;;;;15.70;12.13;;;;;;;;;;4190024;34;20456;-60
2021/01/11 11:05:43;;;;;;;18.10;11.88;;;;;;;;;;4190653;34;20161;-58
2021/01/11 11:08:09;;;;;;;14.32;12.32;;;;;;;;;;4179051;34;20110;-57
2021/01/11 11:10:35;;;;;;;14.38;11.15;;;;;;;;;;4177025;34;20555;-60
2021/01/11 11:13:04;;;;;;;16.80;11.95;;;;;;;;;;4176739;34;20114;-59
2021/01/11 11:15:30;;;;;;;15.15;12.00;;;;;;;;;;4164357;34;20133;-60
2021/01/11 11:17:56;;;;;;;15.20;11.73;;;;;;;;;;4176975;34;20489;-58
2021/01/11 11:20:22;;;;;;;12.82;11.23;;;;;;;;;;4177143;34;20580;-57
2021/01/11 11:22:48;;;;;;;14.45;11.35;;;;;;;;;;4176866;34;20153;-58
2021/01/11 11:25:16;;;;;;;13.73;10.15;;;;;;;;;;4176983;34;20546;-57
2021/01/11 11:27:42;;;;;;;13.57;10.43;;;;;;;;;;4176991;34;20099;-59
2021/01/11 11:30:09;;;;;;;10.48;9.13;;;;;;;;;;4177214;34;20227;-59
2021/01/11 11:32:35;;;;;;;13.88;10.10;;;;;;;;;;4176864;34;20138;-59
2021/01/11 11:35:05;;;;;;;13.60;11.52;;;;;;;;;;4164262;34;20099;-59
2021/01/11 11:37:33;;;;;;;11.30;9.70;;;;;;;;;;4176120;34;20110;-58
2021/01/11 11:39:58;;;;;;;11.45;9.82;;;;;;;;;;4164317;34;20508;-60
2021/01/11 11:42:24;;;;;;;12.48;10.00;;;;;;;;;;4176404;34;20139;-59
2021/01/11 11:44:50;;;;;;;11.38;9.05;;;;;;;;;;4176827;34;20134;-58
2021/01/11 11:47:16;;;;;;;11.80;10.00;;;;;;;;;;4176779;34;20119;-58
2021/01/11 11:49:43;;;;;;;12.65;9.68;;;;;;;;;;4176823;34;20129;-59
2021/01/11 11:52:08;;;;;;;12.70;10.20;;;;;;;;;;4164187;34;20186;-59
2021/01/11 11:54:34;;;;;;;10.70;9.25;;;;;;;;;;4176879;34;20145;-60
2021/01/11 11:57:02;;;;;;;9.68;8.63;;;;;;;;;;4176644;34;20197;-60
2021/01/11 11:59:28;;;;;;;16.98;10.25;;;;;;;;;;4176212;34;20495;-59
2021/01/11 12:01:54;;;;;;;14.60;10.65;;;;;;;;;;4176338;34;20103;-59
2021/01/11 12:04:20;;;;;;;11.45;9.32;;;;;;;;;;4176829;34;20112;-59
2021/01/11 12:06:46;;;;;;;17.52;9.93;;;;;;;;;;4176667;34;20110;-58
2021/01/11 12:09:12;;;;;;;15.10;11.05;;;;;;;;;;4176888;34;20223;-57
2021/01/11 12:11:38;;;;;;;14.05;10.85;;;;;;;;;;4175089;34;20118;-57
2021/01/11 12:14:04;;;;;;;14.77;11.12;;;;;;;;;;4176574;34;20129;-56
2021/01/11 12:16:30;;;;;;;15.55;10.77;;;;;;;;;;4164020;34;20141;-57
2021/01/11 12:18:56;;;;;;;14.27;11.05;;;;;;;;;;4163870;34;20107;-56
2021/01/11 12:21:33;;;;;;;13.93;9.88;;;;;;;;;;4176014;34;20227;-58
2021/01/11 12:23:59;;;;;;;15.00;10.57;;;;;;;;;;4176820;34;20110;-57
2021/01/11 12:26:25;;;;;;;15.43;11.18;;;;;;;;;;4163660;34;20226;-56
2021/01/11 12:28:51;;;;;;;14.40;11.15;;;;;;;;;;4163694;34;20114;-59
2021/01/11 12:31:17;;;;;;;14.93;11.52;;;;;;;;;;4175936;34;20149;-59
2021/01/11 12:33:43;;;;;;;15.15;12.07;;;;;;;;;;4163532;34;20125;-59
2021/01/11 12:36:09;;;;;;;14.40;12.40;;;;;;;;;;4176195;34;20133;-57
2021/01/11 12:38:35;;;;;;;13.52;10.98;;;;;;;;;;4176412;34;20246;-56
2021/01/11 12:41:01;;;;;;;12.65;10.35;;;;;;;;;;4176108;34;20451;-58
2021/01/11 12:43:28;;;;;;;12.93;10.98;;;;;;;;;;4176204;34;20118;-57
2021/01/11 12:45:54;;;;;;;13.43;10.52;;;;;;;;;;4176248;34;20234;-57
2021/01/11 12:48:20;;;;;;;14.40;11.05;;;;;;;;;;4173967;34;20122;-58
2021/01/11 12:50:46;;;;;;;11.98;9.57;;;;;;;;;;4175905;34;20191;-59
2021/01/11 12:53:12;;;;;;;13.85;11.20;;;;;;;;;;4188163;34;20121;-57
2021/01/11 12:55:38;;;;;;;11.65;10.45;;;;;;;;;;4190089;34;20458;-59
2021/01/11 12:58:03;;;;;;;13.88;11.00;;;;;;;;;;4190860;34;20138;-58
2021/01/11 13:00:30;;;;;;;13.27;10.93;;;;;;;;;;4178932;34;20193;-57
2021/01/11 13:02:56;;;;;;;12.13;10.77;;;;;;;;;;4192053;34;20233;-58
2021/01/11 13:05:22;;;;;;;15.15;11.65;;;;;;;;;;4191469;34;20130;-58
2021/01/11 13:07:48;;;;;;;13.30;11.12;;;;;;;;;;4191947;34;20122;-56
2021/01/11 13:10:14;;;;;;;13.82;11.70;;;;;;;;;;4191970;34;20132;-56
2021/01/11 13:12:40;;;;;;;13.25;11.85;;;;;;;;;;4191355;34;20141;-57
2021/01/11 13:15:07;;;;;;;14.75;12.27;;;;;;;;;;4179119;34;20122;-57
2021/01/11 13:17:38;;;;;;;15.32;12.95;;;;;;;;;;4183276;34;20599;-55
2021/01/11 13:20:06;;;;;;;13.48;12.07;;;;;;;;;;4178013;34;20463;-59
2021/01/11 13:22:32;;;;;;;15.95;13.10;;;;;;;;;;4186365;34;20610;-59
2021/01/11 13:24:58;;;;;;;15.45;12.45;;;;;;;;;;4191761;34;20117;-60
2021/01/11 13:27:24;;;;;;;13.73;12.25;;;;;;;;;;4183365;34;20130;-58
2021/01/11 13:29:50;;;;;;;13.82;12.15;;;;;;;;;;4177942;34;20177;-56
2021/01/11 13:32:16;;;;;;;14.48;12.10;;;;;;;;;;4184548;34;20113;-56
2021/01/11 13:34:44;;;;;;;14.32;12.32;;;;;;;;;;4191718;34;20122;-60
2021/01/11 13:37:10;;;;;;;14.77;12.02;;;;;;;;;;4191077;34;20206;-60
2021/01/11 13:39:36;;;;;;;17.55;13.02;;;;;;;;;;4191462;34;20142;-62
2021/01/11 13:42:02;;;;;;;15.13;13.38;;;;;;;;;;4178547;34;20136;-60
2021/01/11 13:44:28;;;;;;;13.13;11.63;;;;;;;;;;4167445;34;20215;-57
2021/01/11 13:46:54;;;;;;;15.15;11.70;;;;;;;;;;4189878;34;20157;-58
2021/01/11 13:49:23;;;;;;;13.10;11.60;;;;;;;;;;4191440;34;20217;-57
2021/01/11 13:51:53;;;;;;;14.45;12.23;;;;;;;;;;4186548;34;20591;-60
2021/01/11 13:54:19;;;;;;;15.20;11.65;;;;;;;;;;4182076;34;20431;-59
2021/01/11 13:56:45;;;;;;;12.82;11.52;;;;;;;;;;4190729;34;20266;-59
2021/01/11 13:59:12;;;;;;;14.70;13.20;;;;;;;;;;4182507;34;20091;-58
2021/01/11 14:01:40;;;;;;;14.75;12.48;;;;;;;;;;4176950;34;20541;-59
2021/01/11 14:04:06;;;;;;;14.35;12.57;;;;;;;;;;4176975;34;20538;-58
2021/01/11 14:06:33;;;;;;;17.42;12.68;;;;;;;;;;4178259;34;20206;-57
2021/01/11 14:08:59;;;;;;;14.15;12.65;;;;;;;;;;4166506;34;20215;-58
2021/01/11 14:11:25;;;;;;;13.55;12.10;;;;;;;;;;4167306;34;20118;-58
2021/01/11 14:13:51;;;;;;;13.27;11.23;;;;;;;;;;4191600;34;20201;-57
2021/01/11 14:16:18;;;;;;;12.75;11.05;;;;;;;;;;4191571;34;20200;-57
2021/01/11 14:18:44;;;;;;;14.23;11.85;;;;;;;;;;4191684;34;20539;-57
2021/01/11 14:21:16;;;;;;;13.85;10.93;;;;;;;;;;4191329;34;20126;-58
2021/01/11 14:23:43;;;;;;;12.65;10.90;;;;;;;;;;4185502;34;20635;-58
2021/01/11 14:26:09;;;;;;;13.43;11.40;;;;;;;;;;4177231;34;20118;-57